メインページ
METAR-TAF:

METAR-TAF

空港 :

昆明長水国際空港

昆明, 中華人民共和国

緯度: 25-01N, 経度: 102-41E, 海抜: 1892m

現時点の気象観測

当レポートは49分前の02:00(UTC)に作成
南西の風 12kt
気温 12°C
湿度 82%
気圧 1028 hPa
視程10km以上
高度2000ftの雲は散在している
高度4000ftの千切れ雲あり

METAR: ZPPP 150200Z 23006MPS 9999 SCT020 BKN040 12/09 Q1028 NOSIG

時間: 10:49 (02:49 UTC)

予報

当レポートは7時間35分前の19:14(UTC)に作成
予報は15日の 00時(UTC)から 15日の 24時(UTC)まで有効
南西の風 10kt
視程10km以上
高度2600ftの雲は散在している
高度4000ftの千切れ雲あり

TAF: ZPPP 141914Z 1500/1524 23005MPS 9999 SCT026 BKN040 TX16/1508Z TN06/1523Z

4,000以上の空港の気象観測と天気予報(METAR報とTAF報)

利用可能な観測所は地図上に黄色い丸と赤い丸で示す。

丸の上にカーソルを重ねると観測所名を参照できる。

次にクリックすると気象観測と天気予報を参照できる。

マップの切り替え:黒色「×」印の緑ボタンをクリックして拡大、「-」印の緑ボタンをクリックして縮小、緑色の三角印をクリックして隣りの地図に切り替え


METAR-TAF: